createdAt,value
2022-09-04T00:00:18.054Z,34.8238
2022-09-04T00:15:19.983Z,34.1936
2022-09-04T00:30:21.882Z,34.3007
2022-09-04T00:45:23.729Z,34.1416
2022-09-04T01:00:25.677Z,33.5405
2022-09-04T01:15:29.748Z,33.6185
2022-09-04T01:30:31.697Z,33.4656
2022-09-04T01:45:33.686Z,33.3455
2022-09-04T02:00:35.662Z,34.0017
2022-09-04T02:15:39.865Z,33.6996
2022-09-04T02:30:41.803Z,33.3814
2022-09-04T02:45:43.752Z,34.0995
2022-09-04T03:00:45.689Z,33.8587
2022-09-04T03:15:47.719Z,33.6637
2022-09-04T03:30:49.684Z,33.4786
2022-09-04T03:45:51.594Z,32.9487
2022-09-04T04:00:53.679Z,33.2118
2022-09-04T04:15:55.622Z,31.8858
2022-09-04T04:30:57.630Z,31.9737
2022-09-04T04:45:59.616Z,31.7292
2022-09-04T05:01:01.565Z,29.409
2022-09-04T05:16:09.454Z,29.9389
2022-09-04T05:31:11.990Z,27.3451
2022-09-04T05:46:14.046Z,30.4001
2022-09-04T06:01:15.965Z,32.0771
2022-09-04T06:16:17.930Z,32.4739
2022-09-04T06:31:20.001Z,32.0641
2022-09-04T06:46:22.064Z,29.188
2022-09-04T07:01:24.198Z,31.0241
2022-09-04T07:16:26.156Z,31.333
2022-09-04T07:31:28.179Z,30.7381
2022-09-04T07:46:30.234Z,31.4562
2022-09-04T08:01:33.570Z,32.62
2022-09-04T08:16:37.914Z,31.918
2022-09-04T08:31:39.848Z,27.4132
2022-09-04T08:46:41.874Z,30.2082
2022-09-04T09:01:43.892Z,29.994
2022-09-04T09:16:46.362Z,30.5202
2022-09-04T09:31:48.295Z,31.1671
2022-09-04T09:46:50.246Z,27.8422
2022-09-04T10:01:52.214Z,28.7423
2022-09-04T10:16:54.294Z,30.3153
2022-09-04T10:31:56.263Z,27.9852
2022-09-04T10:46:58.189Z,27.5754
2022-09-04T11:02:00.216Z,29.7755
2022-09-04T11:17:02.295Z,29.5155
2022-09-04T11:32:04.980Z,28.6674
2022-09-04T11:47:07.006Z,26.2915
2022-09-04T12:02:09.028Z,29.1707
2022-09-04T12:17:10.944Z,28.8395
2022-09-04T12:32:12.877Z,26.4116
2022-09-04T12:47:14.787Z,23.7107
2022-09-04T13:02:16.868Z,24.7928
2022-09-04T13:17:18.910Z,25.722
2022-09-04T13:32:21.120Z,24.8021
2022-09-04T13:47:31.926Z,24.2821
2022-09-04T14:02:34.776Z,24.708
2022-09-04T14:17:36.709Z,25.3481
2022-09-04T14:32:38.703Z,26.0012
2022-09-04T14:47:40.631Z,25.4911
2022-09-04T15:02:42.559Z,24.8671
2022-09-04T15:17:44.519Z,25.5722
2022-09-04T15:32:46.494Z,24.708
2022-09-04T15:47:48.439Z,24.7761
2022-09-04T16:02:50.486Z,24.4932
2022-09-04T16:17:52.466Z,24.9581
2022-09-04T16:32:54.420Z,24.916
2022-09-04T16:47:56.319Z,25.3481
2022-09-04T17:03:01.239Z,25.2701
2022-09-04T17:18:03.333Z,25.787
2022-09-04T17:37:17.549Z,26.047
2022-09-04T17:55:48.155Z,27.217
2022-09-04T18:10:50.198Z,27.9939
2022-09-04T18:25:52.114Z,28.2279
2022-09-04T18:43:41.424Z,28.8129
2022-09-04T19:05:44.932Z,29.7817
2022-09-04T19:20:47.360Z,30.6428
2022-09-04T19:35:49.331Z,30.4874
2022-09-04T19:53:19.084Z,31.1145
2022-09-04T20:08:32.010Z,31.9106
2022-09-04T20:23:35.634Z,31.7552
2022-09-04T20:38:37.718Z,31.788
2022-09-04T20:53:39.683Z,32.1551
2022-09-04T21:08:41.595Z,33.0942
2022-09-04T21:23:47.824Z,33.0682
2022-09-04T21:39:04.747Z,33.2019
2022-09-04T21:54:13.094Z,33.907
2022-09-04T22:13:30.802Z,34.1769
2022-09-04T22:28:46.446Z,35.142
2022-09-04T22:43:48.442Z,35.3147
2022-09-04T22:58:50.415Z,35.8675
2022-09-04T23:14:05.607Z,36.1374
2022-09-04T23:29:09.249Z,37.0406
2022-09-04T23:44:11.241Z,37.2684
2022-09-04T23:59:15.765Z,37.4863
